sensor_id;sensor_type;location;lat;lon;timestamp;temperature;humidity
77839;SHT31;67034;43.226;27.932;2024-01-30T00:00:11;2.70;72.88
77839;SHT31;67034;43.226;27.932;2024-01-30T00:02:38;2.70;73.01
77839;SHT31;67034;43.226;27.932;2024-01-30T00:05:04;2.71;72.95
77839;SHT31;67034;43.226;27.932;2024-01-30T00:07:30;2.68;73.12
77839;SHT31;67034;43.226;27.932;2024-01-30T00:09:56;2.68;73.21
77839;SHT31;67034;43.226;27.932;2024-01-30T00:12:21;2.68;73.39
77839;SHT31;67034;43.226;27.932;2024-01-30T00:14:47;2.66;73.42
77839;SHT31;67034;43.226;27.932;2024-01-30T00:17:14;2.65;73.55
77839;SHT31;67034;43.226;27.932;2024-01-30T00:19:41;2.66;73.58
77839;SHT31;67034;43.226;27.932;2024-01-30T00:22:07;2.70;73.63
77839;SHT31;67034;43.226;27.932;2024-01-30T00:24:33;2.74;73.58
77839;SHT31;67034;43.226;27.932;2024-01-30T00:26:58;2.73;73.65
77839;SHT31;67034;43.226;27.932;2024-01-30T00:29:24;2.73;73.67
77839;SHT31;67034;43.226;27.932;2024-01-30T00:31:55;2.73;73.76
77839;SHT31;67034;43.226;27.932;2024-01-30T00:34:20;2.66;73.94
77839;SHT31;67034;43.226;27.932;2024-01-30T00:36:47;2.71;74.04
77839;SHT31;67034;43.226;27.932;2024-01-30T00:39:13;2.70;74.07
77839;SHT31;67034;43.226;27.932;2024-01-30T00:41:41;2.70;74.19
77839;SHT31;67034;43.226;27.932;2024-01-30T00:44:07;2.70;74.34
77839;SHT31;67034;43.226;27.932;2024-01-30T00:46:32;2.77;74.33
77839;SHT31;67034;43.226;27.932;2024-01-30T00:48:58;2.77;74.29
77839;SHT31;67034;43.226;27.932;2024-01-30T00:51:24;2.78;74.33
77839;SHT31;67034;43.226;27.932;2024-01-30T00:53:51;2.80;74.37
77839;SHT31;67034;43.226;27.932;2024-01-30T00:56:17;2.74;74.40
77839;SHT31;67034;43.226;27.932;2024-01-30T00:58:43;2.73;74.63
77839;SHT31;67034;43.226;27.932;2024-01-30T01:01:09;2.73;74.71
77839;SHT31;67034;43.226;27.932;2024-01-30T01:03:35;2.68;74.87
77839;SHT31;67034;43.226;27.932;2024-01-30T01:06:00;2.71;74.93
77839;SHT31;67034;43.226;27.932;2024-01-30T01:08:26;2.73;74.91
77839;SHT31;67034;43.226;27.932;2024-01-30T01:10:53;2.71;74.89
77839;SHT31;67034;43.226;27.932;2024-01-30T01:13:19;2.75;74.85
77839;SHT31;67034;43.226;27.932;2024-01-30T01:15:45;2.70;74.92
77839;SHT31;67034;43.226;27.932;2024-01-30T01:18:11;2.71;75.02
77839;SHT31;67034;43.226;27.932;2024-01-30T01:20:36;2.64;75.11
77839;SHT31;67034;43.226;27.932;2024-01-30T01:23:02;2.66;75.27
77839;SHT31;67034;43.226;27.932;2024-01-30T01:25:28;2.68;75.28
77839;SHT31;67034;43.226;27.932;2024-01-30T01:27:55;2.65;75.18
77839;SHT31;67034;43.226;27.932;2024-01-30T01:30:21;2.68;75.23
77839;SHT31;67034;43.226;27.932;2024-01-30T01:32:48;2.68;75.31
77839;SHT31;67034;43.226;27.932;2024-01-30T01:35:20;2.65;75.30
77839;SHT31;67034;43.226;27.932;2024-01-30T01:37:46;2.64;75.27
77839;SHT31;67034;43.226;27.932;2024-01-30T01:40:12;2.64;75.28
77839;SHT31;67034;43.226;27.932;2024-01-30T01:42:38;2.65;75.27
77839;SHT31;67034;43.226;27.932;2024-01-30T01:45:05;2.62;75.23
77839;SHT31;67034;43.226;27.932;2024-01-30T01:47:31;2.66;75.19
77839;SHT31;67034;43.226;27.932;2024-01-30T01:49:57;2.70;75.20
77839;SHT31;67034;43.226;27.932;2024-01-30T01:52:23;2.73;74.96
77839;SHT31;67034;43.226;27.932;2024-01-30T01:54:49;2.70;74.85
77839;SHT31;67034;43.226;27.932;2024-01-30T01:57:14;2.68;74.87
77839;SHT31;67034;43.226;27.932;2024-01-30T01:59:40;2.70;74.71
77839;SHT31;67034;43.226;27.932;2024-01-30T02:02:09;2.68;74.73
77839;SHT31;67034;43.226;27.932;2024-01-30T02:04:36;2.65;74.64
77839;SHT31;67034;43.226;27.932;2024-01-30T02:07:02;2.62;74.70
77839;SHT31;67034;43.226;27.932;2024-01-30T02:09:28;2.64;74.81
77839;SHT31;67034;43.226;27.932;2024-01-30T02:11:54;2.60;74.92
77839;SHT31;67034;43.226;27.932;2024-01-30T02:14:20;2.62;75.01
77839;SHT31;67034;43.226;27.932;2024-01-30T02:16:46;2.55;74.85
77839;SHT31;67034;43.226;27.932;2024-01-30T02:19:13;2.51;74.96
77839;SHT31;67034;43.226;27.932;2024-01-30T02:21:40;2.37;75.04
77839;SHT31;67034;43.226;27.932;2024-01-30T02:24:06;2.23;75.23
77839;SHT31;67034;43.226;27.932;2024-01-30T02:26:32;2.12;75.67
77839;SHT31;67034;43.226;27.932;2024-01-30T02:28:57;2.09;75.99
77839;SHT31;67034;43.226;27.932;2024-01-30T02:31:25;2.05;76.22
77839;SHT31;67034;43.226;27.932;2024-01-30T02:33:50;2.03;76.51
77839;SHT31;67034;43.226;27.932;2024-01-30T02:36:16;2.05;76.82
77839;SHT31;67034;43.226;27.932;2024-01-30T02:38:43;2.07;76.95
77839;SHT31;67034;43.226;27.932;2024-01-30T02:41:09;2.10;76.94
77839;SHT31;67034;43.226;27.932;2024-01-30T02:43:35;2.09;77.05
77839;SHT31;67034;43.226;27.932;2024-01-30T02:46:00;2.13;77.12
77839;SHT31;67034;43.226;27.932;2024-01-30T02:48:26;2.15;77.13
77839;SHT31;67034;43.226;27.932;2024-01-30T02:50:52;2.17;77.25
77839;SHT31;67034;43.226;27.932;2024-01-30T02:53:17;2.17;77.21
77839;SHT31;67034;43.226;27.932;2024-01-30T02:55:45;2.17;77.23
77839;SHT31;67034;43.226;27.932;2024-01-30T02:58:10;2.17;77.37
77839;SHT31;67034;43.226;27.932;2024-01-30T03:00:36;2.20;77.37
77839;SHT31;67034;43.226;27.932;2024-01-30T03:03:02;2.17;77.39
77839;SHT31;67034;43.226;27.932;2024-01-30T03:05:28;2.22;77.37
77839;SHT31;67034;43.226;27.932;2024-01-30T03:07:53;2.24;77.28
77839;SHT31;67034;43.226;27.932;2024-01-30T03:10:19;2.19;77.49
77839;SHT31;67034;43.226;27.932;2024-01-30T03:12:46;2.20;77.87
77839;SHT31;67034;43.226;27.932;2024-01-30T03:15:12;2.17;77.97
77839;SHT31;67034;43.226;27.932;2024-01-30T03:17:38;2.13;78.06
77839;SHT31;67034;43.226;27.932;2024-01-30T03:20:04;2.15;78.25
77839;SHT31;67034;43.226;27.932;2024-01-30T03:22:31;2.12;78.30
77839;SHT31;67034;43.226;27.932;2024-01-30T03:24:57;2.12;78.42
77839;SHT31;67034;43.226;27.932;2024-01-30T03:27:23;2.10;78.47
77839;SHT31;67034;43.226;27.932;2024-01-30T03:29:50;2.12;78.54
77839;SHT31;67034;43.226;27.932;2024-01-30T03:32:16;2.06;78.63
77839;SHT31;67034;43.226;27.932;2024-01-30T03:34:41;2.07;78.83
77839;SHT31;67034;43.226;27.932;2024-01-30T03:37:07;2.06;78.86
77839;SHT31;67034;43.226;27.932;2024-01-30T03:39:33;2.03;78.86
77839;SHT31;67034;43.226;27.932;2024-01-30T03:41:59;2.06;78.82
77839;SHT31;67034;43.226;27.932;2024-01-30T03:44:24;2.05;78.79
77839;SHT31;67034;43.226;27.932;2024-01-30T03:46:51;2.07;78.71
77839;SHT31;67034;43.226;27.932;2024-01-30T03:49:17;2.09;78.54
77839;SHT31;67034;43.226;27.932;2024-01-30T03:51:43;2.13;78.46
77839;SHT31;67034;43.226;27.932;2024-01-30T03:54:09;2.16;78.19
77839;SHT31;67034;43.226;27.932;2024-01-30T03:56:35;2.15;78.03
77839;SHT31;67034;43.226;27.932;2024-01-30T03:59:01;2.15;77.98
77839;SHT31;67034;43.226;27.932;2024-01-30T04:01:28;2.16;77.94
77839;SHT31;67034;43.226;27.932;2024-01-30T04:03:55;2.17;77.76
77839;SHT31;67034;43.226;27.932;2024-01-30T04:06:21;2.17;77.64
77839;SHT31;67034;43.226;27.932;2024-01-30T04:08:46;2.19;77.60
77839;SHT31;67034;43.226;27.932;2024-01-30T04:11:12;2.19;77.55
77839;SHT31;67034;43.226;27.932;2024-01-30T04:13:38;2.20;77.45
77839;SHT31;67034;43.226;27.932;2024-01-30T04:16:04;2.13;77.07
77839;SHT31;67034;43.226;27.932;2024-01-30T04:18:30;1.94;76.98
77839;SHT31;67034;43.226;27.932;2024-01-30T04:20:57;1.82;77.14
77839;SHT31;67034;43.226;27.932;2024-01-30T04:23:23;1.72;77.22
77839;SHT31;67034;43.226;27.932;2024-01-30T04:25:49;1.67;77.16
77839;SHT31;67034;43.226;27.932;2024-01-30T04:28:15;1.68;77.37
77839;SHT31;67034;43.226;27.932;2024-01-30T04:30:40;1.65;77.63
77839;SHT31;67034;43.226;27.932;2024-01-30T04:33:06;1.71;77.84
77839;SHT31;67034;43.226;27.932;2024-01-30T04:35:32;1.71;77.69
77839;SHT31;67034;43.226;27.932;2024-01-30T04:37:59;1.81;77.76
77839;SHT31;67034;43.226;27.932;2024-01-30T04:40:25;1.82;77.64
77839;SHT31;67034;43.226;27.932;2024-01-30T04:42:51;1.78;77.48
77839;SHT31;67034;43.226;27.932;2024-01-30T04:45:16;1.86;77.86
77839;SHT31;67034;43.226;27.932;2024-01-30T04:47:42;1.83;77.73
77839;SHT31;67034;43.226;27.932;2024-01-30T04:50:09;1.89;77.84
77839;SHT31;67034;43.226;27.932;2024-01-30T04:52:34;1.86;77.63
77839;SHT31;67034;43.226;27.932;2024-01-30T04:55:01;1.86;77.69
77839;SHT31;67034;43.226;27.932;2024-01-30T04:57:27;1.89;77.59
77839;SHT31;67034;43.226;27.932;2024-01-30T04:59:53;1.85;77.60
77839;SHT31;67034;43.226;27.932;2024-01-30T05:02:19;1.91;77.72
77839;SHT31;67034;43.226;27.932;2024-01-30T05:04:44;1.88;77.59
77839;SHT31;67034;43.226;27.932;2024-01-30T05:07:10;1.96;77.61
77839;SHT31;67034;43.226;27.932;2024-01-30T05:09:36;1.95;77.39
77839;SHT31;67034;43.226;27.932;2024-01-30T05:12:03;1.95;77.50
77839;SHT31;67034;43.226;27.932;2024-01-30T05:14:29;1.91;77.38
77839;SHT31;67034;43.226;27.932;2024-01-30T05:16:55;1.89;77.26
77839;SHT31;67034;43.226;27.932;2024-01-30T05:19:21;1.91;77.44
77839;SHT31;67034;43.226;27.932;2024-01-30T05:21:48;1.91;77.38
77839;SHT31;67034;43.226;27.932;2024-01-30T05:24:14;1.85;77.30
77839;SHT31;67034;43.226;27.932;2024-01-30T05:26:40;1.89;77.49
77839;SHT31;67034;43.226;27.932;2024-01-30T05:29:07;1.86;77.40
77839;SHT31;67034;43.226;27.932;2024-01-30T05:31:33;1.92;77.54
77839;SHT31;67034;43.226;27.932;2024-01-30T05:33:59;1.94;77.45
77839;SHT31;67034;43.226;27.932;2024-01-30T05:36:25;1.94;77.38
77839;SHT31;67034;43.226;27.932;2024-01-30T05:38:51;1.99;77.46
77839;SHT31;67034;43.226;27.932;2024-01-30T05:41:17;1.98;77.31
77839;SHT31;67034;43.226;27.932;2024-01-30T05:43:43;1.98;77.38
77839;SHT31;67034;43.226;27.932;2024-01-30T05:46:10;1.99;77.33
77839;SHT31;67034;43.226;27.932;2024-01-30T05:48:35;2.06;77.33
77839;SHT31;67034;43.226;27.932;2024-01-30T05:51:01;2.05;77.23
77839;SHT31;67034;43.226;27.932;2024-01-30T05:53:28;2.13;77.23
77839;SHT31;67034;43.226;27.932;2024-01-30T05:55:53;2.09;77.06
77839;SHT31;67034;43.226;27.932;2024-01-30T05:58:19;2.09;77.00
77839;SHT31;67034;43.226;27.932;2024-01-30T06:00:45;2.12;76.89
77839;SHT31;67034;43.226;27.932;2024-01-30T06:03:12;2.16;77.11
77839;SHT31;67034;43.226;27.932;2024-01-30T06:05:38;2.12;77.02
77839;SHT31;67034;43.226;27.932;2024-01-30T06:08:04;2.13;77.23
77839;SHT31;67034;43.226;27.932;2024-01-30T06:10:30;2.16;77.29
77839;SHT31;67034;43.226;27.932;2024-01-30T06:12:56;2.15;77.03
77839;SHT31;67034;43.226;27.932;2024-01-30T06:15:21;2.13;77.12
77839;SHT31;67034;43.226;27.932;2024-01-30T06:17:47;2.13;77.08
77839;SHT31;67034;43.226;27.932;2024-01-30T06:20:15;2.09;77.05
77839;SHT31;67034;43.226;27.932;2024-01-30T06:22:41;2.16;77.15
77839;SHT31;67034;43.226;27.932;2024-01-30T06:25:07;2.19;76.98
77839;SHT31;67034;43.226;27.932;2024-01-30T06:27:33;2.17;76.93
77839;SHT31;67034;43.226;27.932;2024-01-30T06:29:59;2.10;76.62
77839;SHT31;67034;43.226;27.932;2024-01-30T06:32:25;2.13;77.00
77839;SHT31;67034;43.226;27.932;2024-01-30T06:34:50;2.10;76.95
77839;SHT31;67034;43.226;27.932;2024-01-30T06:37:17;2.12;77.17
77839;SHT31;67034;43.226;27.932;2024-01-30T06:39:43;2.07;77.09
77839;SHT31;67034;43.226;27.932;2024-01-30T06:42:09;2.12;77.17
77839;SHT31;67034;43.226;27.932;2024-01-30T06:44:35;2.12;76.94
77839;SHT31;67034;43.226;27.932;2024-01-30T06:47:00;2.15;77.11
77839;SHT31;67034;43.226;27.932;2024-01-30T06:49:26;2.20;77.13
77839;SHT31;67034;43.226;27.932;2024-01-30T06:51:52;2.26;77.22
77839;SHT31;67034;43.226;27.932;2024-01-30T06:54:19;2.23;77.35
77839;SHT31;67034;43.226;27.932;2024-01-30T06:56:45;2.20;77.64
77839;SHT31;67034;43.226;27.932;2024-01-30T06:59:11;2.24;77.82
77839;SHT31;67034;43.226;27.932;2024-01-30T07:01:37;2.24;77.77
77839;SHT31;67034;43.226;27.932;2024-01-30T07:04:03;2.33;77.76
77839;SHT31;67034;43.226;27.932;2024-01-30T07:06:29;2.33;77.46
77839;SHT31;67034;43.226;27.932;2024-01-30T07:08:55;2.33;77.15
77839;SHT31;67034;43.226;27.932;2024-01-30T07:11:22;2.30;77.17
77839;SHT31;67034;43.226;27.932;2024-01-30T07:13:50;2.32;77.52
77839;SHT31;67034;43.226;27.932;2024-01-30T07:16:16;2.26;77.41
77839;SHT31;67034;43.226;27.932;2024-01-30T07:18:41;2.29;77.47
77839;SHT31;67034;43.226;27.932;2024-01-30T07:21:07;2.30;77.09
77839;SHT31;67034;43.226;27.932;2024-01-30T07:23:33;2.24;76.73
77839;SHT31;67034;43.226;27.932;2024-01-30T07:26:00;2.29;76.89
77839;SHT31;67034;43.226;27.932;2024-01-30T07:28:27;2.33;76.78
77839;SHT31;67034;43.226;27.932;2024-01-30T07:30:53;2.37;76.59
77839;SHT31;67034;43.226;27.932;2024-01-30T07:33:19;2.38;76.31
77839;SHT31;67034;43.226;27.932;2024-01-30T07:35:45;2.51;76.34
77839;SHT31;67034;43.226;27.932;2024-01-30T07:38:11;2.57;76.07
77839;SHT31;67034;43.226;27.932;2024-01-30T07:40:37;2.71;76.28
77839;SHT31;67034;43.226;27.932;2024-01-30T07:43:03;3.11;76.69
77839;SHT31;67034;43.226;27.932;2024-01-30T07:45:30;3.40;76.18
77839;SHT31;67034;43.226;27.932;2024-01-30T07:47:59;3.66;75.41
77839;SHT31;67034;43.226;27.932;2024-01-30T07:50:25;3.82;74.59
77839;SHT31;67034;43.226;27.932;2024-01-30T07:52:51;3.85;73.76
77839;SHT31;67034;43.226;27.932;2024-01-30T07:55:20;3.85;72.69
77839;SHT31;67034;43.226;27.932;2024-01-30T07:57:46;3.84;72.20
77839;SHT31;67034;43.226;27.932;2024-01-30T08:00:13;3.81;71.87
77839;SHT31;67034;43.226;27.932;2024-01-30T08:02:40;3.94;72.37
77839;SHT31;67034;43.226;27.932;2024-01-30T08:05:06;4.28;72.82
77839;SHT31;67034;43.226;27.932;2024-01-30T08:07:32;4.49;71.76
77839;SHT31;67034;43.226;27.932;2024-01-30T08:09:57;4.46;70.79
77839;SHT31;67034;43.226;27.932;2024-01-30T08:12:23;4.40;70.41
77839;SHT31;67034;43.226;27.932;2024-01-30T08:14:49;4.08;69.88
77839;SHT31;67034;43.226;27.932;2024-01-30T08:17:15;3.61;70.62
77839;SHT31;67034;43.226;27.932;2024-01-30T08:19:42;3.32;71.54
77839;SHT31;67034;43.226;27.932;2024-01-30T08:22:07;3.19;72.14
77839;SHT31;67034;43.226;27.932;2024-01-30T08:24:33;3.06;72.50
77839;SHT31;67034;43.226;27.932;2024-01-30T08:26:59;2.98;73.06
77839;SHT31;67034;43.226;27.932;2024-01-30T08:29:26;2.96;73.23
77839;SHT31;67034;43.226;27.932;2024-01-30T08:31:52;2.92;73.27
77839;SHT31;67034;43.226;27.932;2024-01-30T08:34:17;2.91;73.47
77839;SHT31;67034;43.226;27.932;2024-01-30T08:36:44;2.99;73.70
77839;SHT31;67034;43.226;27.932;2024-01-30T08:39:10;2.99;73.70
77839;SHT31;67034;43.226;27.932;2024-01-30T08:41:36;3.03;73.93
77839;SHT31;67034;43.226;27.932;2024-01-30T08:44:02;3.25;73.74
77839;SHT31;67034;43.226;27.932;2024-01-30T08:46:28;3.44;73.06
77839;SHT31;67034;43.226;27.932;2024-01-30T08:48:54;3.57;72.51
77839;SHT31;67034;43.226;27.932;2024-01-30T08:51:20;3.71;72.05
77839;SHT31;67034;43.226;27.932;2024-01-30T08:53:47;3.78;71.52
77839;SHT31;67034;43.226;27.932;2024-01-30T08:56:13;3.90;71.14
77839;SHT31;67034;43.226;27.932;2024-01-30T08:58:39;3.97;70.93
77839;SHT31;67034;43.226;27.932;2024-01-30T09:01:05;4.06;70.60
77839;SHT31;67034;43.226;27.932;2024-01-30T09:03:31;4.16;70.28
77839;SHT31;67034;43.226;27.932;2024-01-30T09:05:57;4.25;70.03
77839;SHT31;67034;43.226;27.932;2024-01-30T09:08:28;4.33;69.64
77839;SHT31;67034;43.226;27.932;2024-01-30T09:10:55;4.42;69.30
77839;SHT31;67034;43.226;27.932;2024-01-30T09:13:21;4.56;68.98
77839;SHT31;67034;43.226;27.932;2024-01-30T09:15:47;4.57;68.52
77839;SHT31;67034;43.226;27.932;2024-01-30T09:18:13;4.64;68.22
77839;SHT31;67034;43.226;27.932;2024-01-30T09:20:38;4.71;68.07
77839;SHT31;67034;43.226;27.932;2024-01-30T09:23:04;4.74;67.86
77839;SHT31;67034;43.226;27.932;2024-01-30T09:25:38;4.52;67.40
77839;SHT31;67034;43.226;27.932;2024-01-30T09:28:05;4.29;68.15
77839;SHT31;67034;43.226;27.932;2024-01-30T09:30:32;4.21;68.97
77839;SHT31;67034;43.226;27.932;2024-01-30T09:32:58;4.16;69.15
77839;SHT31;67034;43.226;27.932;2024-01-30T09:35:24;4.13;69.14
77839;SHT31;67034;43.226;27.932;2024-01-30T09:37:49;4.15;69.32
77839;SHT31;67034;43.226;27.932;2024-01-30T09:40:17;4.15;69.29
77839;SHT31;67034;43.226;27.932;2024-01-30T09:42:46;4.22;69.44
77839;SHT31;67034;43.226;27.932;2024-01-30T09:45:17;4.29;69.73
77839;SHT31;67034;43.226;27.932;2024-01-30T09:47:44;4.28;69.69
77839;SHT31;67034;43.226;27.932;2024-01-30T09:50:11;4.35;69.99
77839;SHT31;67034;43.226;27.932;2024-01-30T09:52:38;4.49;70.23
77839;SHT31;67034;43.226;27.932;2024-01-30T09:55:04;4.61;69.94
77839;SHT31;67034;43.226;27.932;2024-01-30T09:57:30;4.63;69.61
77839;SHT31;67034;43.226;27.932;2024-01-30T09:59:56;4.54;69.62
77839;SHT31;67034;43.226;27.932;2024-01-30T10:02:23;4.49;69.48
77839;SHT31;67034;43.226;27.932;2024-01-30T10:04:50;4.45;69.57
77839;SHT31;67034;43.226;27.932;2024-01-30T10:07:16;4.38;69.79
77839;SHT31;67034;43.226;27.932;2024-01-30T10:09:42;4.33;69.42
77839;SHT31;67034;43.226;27.932;2024-01-30T10:12:08;4.28;69.59
77839;SHT31;67034;43.226;27.932;2024-01-30T10:14:37;4.33;69.64
77839;SHT31;67034;43.226;27.932;2024-01-30T10:17:03;4.35;69.52
77839;SHT31;67034;43.226;27.932;2024-01-30T10:19:31;4.40;69.44
77839;SHT31;67034;43.226;27.932;2024-01-30T10:21:56;4.42;69.11
77839;SHT31;67034;43.226;27.932;2024-01-30T10:24:24;4.46;69.05
77839;SHT31;67034;43.226;27.932;2024-01-30T10:26:50;4.53;68.86
77839;SHT31;67034;43.226;27.932;2024-01-30T10:29:16;4.63;68.90
77839;SHT31;67034;43.226;27.932;2024-01-30T10:31:42;4.73;68.60
77839;SHT31;67034;43.226;27.932;2024-01-30T10:34:08;4.77;68.32
77839;SHT31;67034;43.226;27.932;2024-01-30T10:36:37;4.76;68.71
77839;SHT31;67034;43.226;27.932;2024-01-30T10:39:06;4.87;68.26
77839;SHT31;67034;43.226;27.932;2024-01-30T10:41:36;4.88;68.12
77839;SHT31;67034;43.226;27.932;2024-01-30T10:44:08;5.07;67.86
77839;SHT31;67034;43.226;27.932;2024-01-30T10:46:35;5.29;66.79
77839;SHT31;67034;43.226;27.932;2024-01-30T10:49:04;5.52;65.92
77839;SHT31;67034;43.226;27.932;2024-01-30T10:51:31;5.66;65.34
77839;SHT31;67034;43.226;27.932;2024-01-30T10:53:58;5.80;64.61
77839;SHT31;67034;43.226;27.932;2024-01-30T10:56:25;5.90;64.38
77839;SHT31;67034;43.226;27.932;2024-01-30T10:58:52;5.96;64.34
77839;SHT31;67034;43.226;27.932;2024-01-30T11:01:19;6.00;63.80
77839;SHT31;67034;43.226;27.932;2024-01-30T11:03:48;6.03;62.95
77839;SHT31;67034;43.226;27.932;2024-01-30T11:06:14;5.98;63.13
77839;SHT31;67034;43.226;27.932;2024-01-30T11:08:43;6.08;63.26
77839;SHT31;67034;43.226;27.932;2024-01-30T11:11:11;6.16;62.98
77839;SHT31;67034;43.226;27.932;2024-01-30T11:13:37;6.08;62.55
77839;SHT31;67034;43.226;27.932;2024-01-30T11:16:03;5.80;63.11
77839;SHT31;67034;43.226;27.932;2024-01-30T11:18:31;5.74;63.49
77839;SHT31;67034;43.226;27.932;2024-01-30T11:20:57;5.58;63.25
77839;SHT31;67034;43.226;27.932;2024-01-30T11:23:23;5.35;63.82
77839;SHT31;67034;43.226;27.932;2024-01-30T11:25:52;5.42;64.19
77839;SHT31;67034;43.226;27.932;2024-01-30T11:28:21;5.45;63.92
77839;SHT31;67034;43.226;27.932;2024-01-30T11:30:46;5.50;63.50
77839;SHT31;67034;43.226;27.932;2024-01-30T11:33:13;5.38;63.32
77839;SHT31;67034;43.226;27.932;2024-01-30T11:35:40;5.32;63.71
77839;SHT31;67034;43.226;27.932;2024-01-30T11:38:07;5.27;64.13
77839;SHT31;67034;43.226;27.932;2024-01-30T11:40:34;5.28;64.19
77839;SHT31;67034;43.226;27.932;2024-01-30T11:43:02;5.24;64.39
77839;SHT31;67034;43.226;27.932;2024-01-30T11:45:30;5.42;64.13
77839;SHT31;67034;43.226;27.932;2024-01-30T11:47:56;5.50;63.64
77839;SHT31;67034;43.226;27.932;2024-01-30T11:50:22;5.49;63.76
77839;SHT31;67034;43.226;27.932;2024-01-30T11:52:48;5.55;63.55
77839;SHT31;67034;43.226;27.932;2024-01-30T11:55:14;5.49;63.10
77839;SHT31;67034;43.226;27.932;2024-01-30T11:57:40;5.48;63.15
77839;SHT31;67034;43.226;27.932;2024-01-30T12:00:13;5.55;62.80
77839;SHT31;67034;43.226;27.932;2024-01-30T12:02:40;5.55;62.50
77839;SHT31;67034;43.226;27.932;2024-01-30T12:05:07;5.62;62.08
77839;SHT31;67034;43.226;27.932;2024-01-30T12:07:32;5.67;61.61
77839;SHT31;67034;43.226;27.932;2024-01-30T12:09:58;5.81;61.14
77839;SHT31;67034;43.226;27.932;2024-01-30T12:12:25;6.03;61.25
77839;SHT31;67034;43.226;27.932;2024-01-30T12:14:51;6.25;60.69
77839;SHT31;67034;43.226;27.932;2024-01-30T12:17:24;6.39;59.89
77839;SHT31;67034;43.226;27.932;2024-01-30T12:19:51;6.50;59.86
77839;SHT31;67034;43.226;27.932;2024-01-30T12:22:27;6.61;59.65
77839;SHT31;67034;43.226;27.932;2024-01-30T12:24:53;6.68;59.64
77839;SHT31;67034;43.226;27.932;2024-01-30T12:27:19;6.65;59.41
77839;SHT31;67034;43.226;27.932;2024-01-30T12:29:45;6.59;59.57
77839;SHT31;67034;43.226;27.932;2024-01-30T12:32:14;6.56;59.54
77839;SHT31;67034;43.226;27.932;2024-01-30T12:34:40;6.53;59.77
77839;SHT31;67034;43.226;27.932;2024-01-30T12:37:08;6.52;59.88
77839;SHT31;67034;43.226;27.932;2024-01-30T12:39:35;6.55;59.67
77839;SHT31;67034;43.226;27.932;2024-01-30T12:42:01;6.61;59.88
77839;SHT31;67034;43.226;27.932;2024-01-30T12:44:26;6.62;59.61
77839;SHT31;67034;43.226;27.932;2024-01-30T12:46:52;6.53;59.55
77839;SHT31;67034;43.226;27.932;2024-01-30T12:49:18;6.58;59.86
77839;SHT31;67034;43.226;27.932;2024-01-30T12:51:44;6.61;59.78
77839;SHT31;67034;43.226;27.932;2024-01-30T12:54:12;6.65;59.90
77839;SHT31;67034;43.226;27.932;2024-01-30T12:56:38;6.66;59.29
77839;SHT31;67034;43.226;27.932;2024-01-30T12:59:04;6.50;59.45
77839;SHT31;67034;43.226;27.932;2024-01-30T13:01:29;6.28;59.32
77839;SHT31;67034;43.226;27.932;2024-01-30T13:03:55;6.18;59.47
77839;SHT31;67034;43.226;27.932;2024-01-30T13:06:23;5.97;58.96
77839;SHT31;67034;43.226;27.932;2024-01-30T13:08:48;5.74;59.14
77839;SHT31;67034;43.226;27.932;2024-01-30T13:11:16;5.58;58.86
77839;SHT31;67034;43.226;27.932;2024-01-30T13:13:41;5.52;58.79
77839;SHT31;67034;43.226;27.932;2024-01-30T13:16:08;5.50;58.64
77839;SHT31;67034;43.226;27.932;2024-01-30T13:18:34;5.53;58.52
77839;SHT31;67034;43.226;27.932;2024-01-30T13:20:59;5.67;58.34
77839;SHT31;67034;43.226;27.932;2024-01-30T13:23:25;5.86;57.79
77839;SHT31;67034;43.226;27.932;2024-01-30T13:25:51;6.04;57.65
77839;SHT31;67034;43.226;27.932;2024-01-30T13:28:18;6.13;57.02
77839;SHT31;67034;43.226;27.932;2024-01-30T13:30:44;6.41;57.91
77839;SHT31;67034;43.226;27.932;2024-01-30T13:33:09;6.72;57.63
77839;SHT31;67034;43.226;27.932;2024-01-30T13:35:35;7.01;56.63
77839;SHT31;67034;43.226;27.932;2024-01-30T13:38:01;7.23;55.96
77839;SHT31;67034;43.226;27.932;2024-01-30T13:40:26;7.34;54.87
77839;SHT31;67034;43.226;27.932;2024-01-30T13:42:52;7.45;55.42
77839;SHT31;67034;43.226;27.932;2024-01-30T13:45:19;7.51;54.97
77839;SHT31;67034;43.226;27.932;2024-01-30T13:47:44;7.55;55.00
77839;SHT31;67034;43.226;27.932;2024-01-30T13:50:10;7.59;54.93
77839;SHT31;67034;43.226;27.932;2024-01-30T13:52:40;7.66;54.60
77839;SHT31;67034;43.226;27.932;2024-01-30T13:55:06;7.74;54.21
77839;SHT31;67034;43.226;27.932;2024-01-30T13:57:31;7.71;53.54
77839;SHT31;67034;43.226;27.932;2024-01-30T14:00:00;7.76;53.48
77839;SHT31;67034;43.226;27.932;2024-01-30T14:02:27;7.66;52.25
77839;SHT31;67034;43.226;27.932;2024-01-30T14:04:53;7.59;52.46
77839;SHT31;67034;43.226;27.932;2024-01-30T14:07:18;7.47;52.15
77839;SHT31;67034;43.226;27.932;2024-01-30T14:09:44;7.18;52.24
77839;SHT31;67034;43.226;27.932;2024-01-30T14:12:10;6.90;52.60
77839;SHT31;67034;43.226;27.932;2024-01-30T14:14:35;6.71;53.56
77839;SHT31;67034;43.226;27.932;2024-01-30T14:17:01;6.49;54.26
77839;SHT31;67034;43.226;27.932;2024-01-30T14:19:28;6.35;54.75
77839;SHT31;67034;43.226;27.932;2024-01-30T14:21:54;6.29;54.86
77839;SHT31;67034;43.226;27.932;2024-01-30T14:24:19;6.25;54.97
77839;SHT31;67034;43.226;27.932;2024-01-30T14:26:45;6.20;54.91
77839;SHT31;67034;43.226;27.932;2024-01-30T14:29:12;6.20;54.78
77839;SHT31;67034;43.226;27.932;2024-01-30T14:31:38;6.13;55.18
77839;SHT31;67034;43.226;27.932;2024-01-30T14:34:03;6.08;55.67
77839;SHT31;67034;43.226;27.932;2024-01-30T14:36:30;6.07;55.70
77839;SHT31;67034;43.226;27.932;2024-01-30T14:38:56;6.03;55.86
77839;SHT31;67034;43.226;27.932;2024-01-30T14:41:22;5.97;56.30
77839;SHT31;67034;43.226;27.932;2024-01-30T14:43:48;5.94;56.65
77839;SHT31;67034;43.226;27.932;2024-01-30T14:46:14;5.98;56.96
77839;SHT31;67034;43.226;27.932;2024-01-30T14:48:40;5.94;57.41
77839;SHT31;67034;43.226;27.932;2024-01-30T14:51:05;5.90;57.77
77839;SHT31;67034;43.226;27.932;2024-01-30T14:53:32;5.81;58.24
77839;SHT31;67034;43.226;27.932;2024-01-30T14:55:58;5.79;58.62
77839;SHT31;67034;43.226;27.932;2024-01-30T14:58:24;5.76;58.90
77839;SHT31;67034;43.226;27.932;2024-01-30T15:00:50;5.74;59.26
77839;SHT31;67034;43.226;27.932;2024-01-30T15:03:15;5.66;59.71
77839;SHT31;67034;43.226;27.932;2024-01-30T15:05:41;5.63;59.91
77839;SHT31;67034;43.226;27.932;2024-01-30T15:08:07;5.70;60.40
77839;SHT31;67034;43.226;27.932;2024-01-30T15:10:34;5.98;60.65
77839;SHT31;67034;43.226;27.932;2024-01-30T15:13:00;6.22;60.13
77839;SHT31;67034;43.226;27.932;2024-01-30T15:15:26;6.41;59.89
77839;SHT31;67034;43.226;27.932;2024-01-30T15:17:53;6.53;59.80
77839;SHT31;67034;43.226;27.932;2024-01-30T15:20:19;6.62;59.32
77839;SHT31;67034;43.226;27.932;2024-01-30T15:22:45;6.68;59.15